Ravensdale, WA

8:05 PM PDT on June 29, 2016 (GMT -0700)
Hilltop of Sugarloaf Estates | Change Station
CLOSE
Current Station
Personal Weather Station
Location: Ravensdale, WA
Elevation: 971 ft
Nearby Weather Stations

Elev 971 ft 47.34 °N, 121.91 °W | Updated 3 seconds ago

Clear
Clear
65.8 °F
Feels Like 65.8 °F
N
0.0
Wind Variable Wind from West
Gusts 0.0 mph

Today
High -- | Low -- °F
--% Chance of Precip.
Yesterday
High -- | Low -- °F
Precip. -- in
5:14 AM 9:08 PM
Waning Crescent, 24% visible
Pressure 30.15 in
Visibility 10.0 miles
Clouds Clear
Dew Point 59 °F
Humidity 79%
Rainfall 0.00 in
Snow Depth 0 in
UV 1 out of 12
Pollen 6.10 out of 12
Ozone Good
Flu Activity Not available.
METAR KRNT 300253Z 00000KT 10SM CLR 22/13 A3013 RMK AO2 SLP209 T02220133 58005 $

More Conditions Fewer Conditions

Pressure 30.15 in
Visibility 10.0 miles
Clouds Clear
Dew Point 59 °F
Humidity 79%
Rainfall 0.00 in
Snow Depth 0 in
UV 1 out of 12
Pollen 6.10 out of 12
Ozone Good
Flu Activity Not available.
METAR KRNT 300253Z 00000KT 10SM CLR 22/13 A3013 RMK AO2 SLP209 T02220133 58005 $

More Conditions Fewer Conditions

10-Day Weather Forecast

Almanac

Astronomy

Jun. 29, 2016 Rise Set
Actual Time 5:14 AM PDT 9:08 PM PDT
Civil Twilight 4:34 AM PDT 9:48 PM PDT
Nautical Twilight 3:38 AM PDT 10:43 PM PDT
Astronomical Twilight 2:14 AM PDT 12:06 AM PDT
Moon 1:56 AM PDT (6/29) 3:43 PM PDT (6/29)
Length of Visible Light 17h 14m
Length of Day
15h 53m
Tomorrow will be 0m 46s shorter.
Waning Crescent, 24% of the Moon is Illuminated
Today
Waning Crescent
Jul 4
New
Jul 11
First Quarter
Jul 19
Full
Jul 26
Last Quarter

Today's Extremes

State Highs State Lows

Community

WunderPhotos

Upload Photos

1,921,724 photos uploaded!

Nearby

Air Quality

  Air Quality AQ Index Pollutant
Yesterday Good
OZONE
Current Good
OZONE
Wednesday Moderate
OZONE
Wednesday Good
PM2.5
Thursday Good
OZONE
Thursday Good
PM2.5
Friday Good
OZONE
Friday Good
PM2.5
Saturday Good
OZONE
Saturday Good
PM2.5

Snow Depth

Station Depth Elevation
Mount Gardner 0 in 3000 ft
Meadows Pass 0 in 3500 ft
Olallie Meadows 0 in 3700 ft
Alpine Meadows 2 in 3500 ft
Bumping Ridge 0 in 4600 ft

Earthquake Activity

City Distance Mag. Time & Date
No recent earthquake activity has been reported nearby.
Minimum magnitude displayed is 2.5.

Coastal Water Temperatures

Place Temperature
Port Townsend, WA 53.1 °F
Seattle, WA 55.0 °F
Friday Harbor, WA 53.1 °F
Tacoma, WA 54.0 °F

Nearby Weather Stations